EGLLLFRI

Guest
Details From EGLL - London Heathrow
To LFRI - La Roche Sur Yon Les Ajoncs
Flight Number -
Tags Generated
Created
Modified
Stats Distance 290 nm / 537 km
Max Altitude 0 ft / 0 m
Waypoints 3
Social Downloads 0
Likes 0
Share VATSIM

Download

Looking for another format? Having issues loading an existing format? Contact us
Advertisement - Login to hide

Notes

Generated

Route

EGLL LAROK LFRI

ID Type Via Altitude Latitude Longitude Leg Dist Tot Dist Heading (true) Name
O EGLL APT - 0 ft / 0 m 51.46477˚ -0.48695˚ - 0 nm - -
LAROK FIX - 0 ft / 0 m 46.71083˚ -1.43361˚ 287 nm 287 nm 188° / 187° -
O LFRI APT - 0 ft / 0 m 46.70332˚ -1.38856˚ 1 nm 289 nm 104° / 104° -

Altitude Profile

Advertisement - Login to hide

Weather


0- 5 10 15 20 25 30 35+ Temperature / ° C

Clouds and Precipitation
Forecast for 2017-12-13 06:00 UTC. Updated 17 minutes ago

Ground ~20,000 ft ~40,000 ft Winds

EGLL

Details ICAO EGLL (LHR)
Name London Heathrow
Region United Kingdom
Timezone Europe/London (UTC+0.0)
Stats Elevation 83 ft / 25 m (AMSL)
Location 51.471218° -0.460978°
Runways 2
Magnetic Variation 0.560° W

METAR

EGLL 130520Z AUTO 28010KT 9999 NCD 06/05 Q1001 NOSIG

Decode

TAF

TAF EGLL 122301Z 1300/1406 20010KT 9999 BKN025 TEMPO 1300/1306 7000 -RA BKN012 PROB30 TEMPO 1300/1306 20015G25KT 3000 RADZ BKN005 TEMPO 1310/1316 27018G28KT 7000 SHRA BKN012 PROB30 TEMPO 1312/1316 4000 +SHRA BECMG 1320/1324 26020G30KT TEMPO 1320/1324 6000 SHRA BKN012

Decode

Departure Runways

ID Width Length Bearing (true) Bearing (mag) Surface Threshold Offset Overrun Length
09L 164 ft / 50 m 12,811 ft / 3,905 m 89.64° 90.20° Asphalt 1,004 ft / 306 m 0 ft / 0 m
09R 164 ft / 50 m 12,019 ft / 3,663 m 89.67° 90.23° Asphalt 1,007 ft / 307 m 0 ft / 0 m
27L 164 ft / 50 m 12,019 ft / 3,663 m 269.71° 270.27° Asphalt 0 ft / 0 m 69 ft / 21 m
27R 164 ft / 50 m 12,811 ft / 3,905 m 269.69° 270.25° Asphalt 0 ft / 0 m 69 ft / 21 m

LFRI

Details ICAO LFRI (EDM)
Name La Roche sur Yon les Ajoncs
Region France
Timezone Europe/Paris (UTC+1.0)
Stats Elevation 299 ft / 91 m (AMSL)
Location 46.701944° -1.378625°
Runways 1
Magnetic Variation 0.400° W

METAR

LFRI 130530Z AUTO 20015KT 5000 -RA BR OVC004 11/10 Q1011 TEMPO 28010KT BKN013 BKN040

Decode

TAF

TAF LFRI 122106Z 1221/1318 CNL

Decode

Destination Runways

ID Width Length Bearing (true) Bearing (mag) Surface Threshold Offset Overrun Length
10 98 ft / 30 m 5,073 ft / 1,546 m 101.40° 101.80° Asphalt 0 ft / 0 m 0 ft / 0 m
28 98 ft / 30 m 5,073 ft / 1,546 m 281.42° 281.82° Asphalt 951 ft / 290 m 0 ft / 0 m

Approach Navaids

Runway Type Ident Frequency Range Bearing (true) Bearing (mag) Slope Elevation
28 Localiser LRY 111.90 MHz 18 nm / 33 km 281.41° 281.81° - 281 ft / 86 m (AMSL)
28 Glidescope LRY 111.90 MHz 10 nm / 19 km 281.41° 281.81° 3.00° 335 ft / 102 m (AMSL)
28 DME LRY 111.90 MHz 18 nm / 33 km - - - 335 ft / 102 m (AMSL)